Overview Statistics Trail Chart Weather Telemetry Raw packets
 

This is the latest recevied weather packets stored in our database for station/object IQ5VK-13. If no packets are shown the sender has not sent any weather packets the latest 10 day(s).

<< 4 5 6 7 8 9 10 >>
Time Temp. Humidity Pressure Rain* Wind** Luminosity Snow
1788378760 18.89° C 85% 1022.6 hPa - - - -
1788377560 18.89° C 84% 1022.6 hPa - - - -
1788376360 19.44° C 79% 1022.4 hPa - - - -
1788375160 19.44° C 75% 1022.4 hPa - - - -
1788372764 20° C 70% 1022.2 hPa - - - -
1788371564 20.56° C 68% 1022.1 hPa - - - -
1788370364 21.67° C 62% 1022 hPa - - - -
1788369163 23.33° C 57% 1022.1 hPa - - - -
1788367963 24.44° C 52% 1022.1 hPa - - - -
1788366763 25° C 50% 1022.3 hPa - - - -
1788365562 24.44° C 51% 1022.1 hPa - - - -
1788364362 22.22° C 63% 1022.3 hPa - - - -
1788363162 23.89° C 58% 1022.3 hPa - - - -
1788361962 26.11° C 54% 1022.6 hPa - - - -
1788360761 25.56° C 54% 1022.5 hPa - - - -
1788359561 26.11° C 53% 1022.5 hPa - - - -
1788358361 26.11° C 52% 1022.6 hPa - - - -
1788357161 25.56° C 54% 1022.6 hPa - - - -
1788355961 24.44° C 62% 1022.9 hPa - - - -
1788354760 23.89° C 57% 1022.8 hPa - - - -
1788353561 25.56° C 53% 1022.9 hPa - - - -
1788351164 25.56° C 50% 1023.3 hPa - - - -
1788349964 25.56° C 49% 1023.4 hPa - - - -
1788348764 26.11° C 49% 1023.5 hPa - - - -
1788347567 25.56° C 49% 1023.6 hPa - - - -

* Rain since midnight (hover to see other rain measurements)
** Current wind speed in m/s (hover to see current wind gust speed)